Boone, North Carolina
Current Conditions -  °F | °C
As of 7:35 PM on Thursday 18 Dec 2014 (Local Time) from KTNB Reporting Station
Broken Clouds Broken Clouds  
Wind Chill: 27°   Ceiling: 5000
Heat Index: 36°   Visibility: 10mi
Dew Point: 13°   Wind: 14mph
Humidity: 40%   Direction: 280°W
Pressure: 30.09"   Gusts: 20mph
Location:  36.22°N, 81.69°W
Report Text: KTNB 190035Z AUTO 28012G17KT 10SM SCT043 BKN050 BKN060 02/M10 A3009 RMK AO2 T00201103
Loading
Personal Weather Stations






























Interactive Weather Map New forecast layout! Learn more

10-Day Weather Forecast

Advertisements
Track Severe Weather on mobile